sensor_id;sensor_type;location;lat;lon;timestamp;pressure;altitude;pressure_sealevel;temperature;humidity
43818;BME280;29868;47.360;18.984;2023-12-20T00:00:12;61235.19;;;-1.37;100.00
43818;BME280;29868;47.360;18.984;2023-12-20T00:02:38;61226.94;;;-1.45;100.00
43818;BME280;29868;47.360;18.984;2023-12-20T00:05:04;61222.75;;;-1.47;100.00
43818;BME280;29868;47.360;18.984;2023-12-20T00:07:29;61230.00;;;-1.44;100.00
43818;BME280;29868;47.360;18.984;2023-12-20T00:09:55;61228.03;;;-1.44;100.00
43818;BME280;29868;47.360;18.984;2023-12-20T00:12:20;61237.63;;;-1.33;100.00
43818;BME280;29868;47.360;18.984;2023-12-20T00:14:45;61227.41;;;-1.40;100.00
43818;BME280;29868;47.360;18.984;2023-12-20T00:17:11;61230.78;;;-1.41;100.00
43818;BME280;29868;47.360;18.984;2023-12-20T00:19:36;61204.81;;;-1.61;100.00
43818;BME280;29868;47.360;18.984;2023-12-20T00:22:02;61217.00;;;-1.54;100.00
43818;BME280;29868;47.360;18.984;2023-12-20T00:24:27;61220.78;;;-1.46;100.00
43818;BME280;29868;47.360;18.984;2023-12-20T00:26:52;61212.59;;;-1.58;100.00
43818;BME280;29868;47.360;18.984;2023-12-20T00:29:18;61209.22;;;-1.57;100.00
43818;BME280;29868;47.360;18.984;2023-12-20T00:31:43;61220.31;;;-1.51;100.00
43818;BME280;29868;47.360;18.984;2023-12-20T00:34:09;61228.03;;;-1.44;100.00
43818;BME280;29868;47.360;18.984;2023-12-20T00:36:34;61219.44;;;-1.50;100.00
43818;BME280;29868;47.360;18.984;2023-12-20T00:39:00;61226.06;;;-1.43;100.00
43818;BME280;29868;47.360;18.984;2023-12-20T00:41:25;61229.94;;;-1.40;100.00
43818;BME280;29868;47.360;18.984;2023-12-20T00:43:50;61232.13;;;-1.38;100.00
43818;BME280;29868;47.360;18.984;2023-12-20T00:46:16;61220.78;;;-1.46;100.00
43818;BME280;29868;47.360;18.984;2023-12-20T01:19:32;61242.06;;;-1.29;100.00
43818;BME280;29868;47.360;18.984;2023-12-20T01:21:57;61237.94;;;-1.35;100.00
43818;BME280;29868;47.360;18.984;2023-12-20T01:24:22;61252.28;;;-1.22;100.00
43818;BME280;29868;47.360;18.984;2023-12-20T01:26:48;61230.69;;;-1.37;100.00
43818;BME280;29868;47.360;18.984;2023-12-20T01:29:13;61226.38;;;-1.45;100.00
43818;BME280;29868;47.360;18.984;2023-12-20T01:31:39;61233.53;;;-1.39;100.00
43818;BME280;29868;47.360;18.984;2023-12-20T01:34:06;61219.53;;;-1.54;100.00
43818;BME280;29868;47.360;18.984;2023-12-20T01:36:31;61223.84;;;-1.45;100.00
43818;BME280;29868;47.360;18.984;2023-12-20T01:38:57;61215.91;;;-1.55;100.00
43818;BME280;29868;47.360;18.984;2023-12-20T01:41:22;61230.78;;;-1.41;100.00
43818;BME280;29868;47.360;18.984;2023-12-20T01:43:48;61224.72;;;-1.47;100.00
43818;BME280;29868;47.360;18.984;2023-12-20T01:46:14;61223.31;;;-1.46;100.00
43818;BME280;29868;47.360;18.984;2023-12-20T01:48:40;61217.22;;;-1.52;100.00
43818;BME280;29868;47.360;18.984;2023-12-20T01:51:05;61215.59;;;-1.53;100.00
43818;BME280;29868;47.360;18.984;2023-12-20T01:53:31;61220.31;;;-1.51;100.00
43818;BME280;29868;47.360;18.984;2023-12-20T01:55:58;61223.53;;;-1.43;100.00
43818;BME280;29868;47.360;18.984;2023-12-20T01:58:24;61219.75;;;-1.52;100.00
43818;BME280;29868;47.360;18.984;2023-12-20T02:00:50;61221.97;;;-1.50;100.00
43818;BME280;29868;47.360;18.984;2023-12-20T02:03:16;61236.31;;;-1.36;100.00
43818;BME280;29868;47.360;18.984;2023-12-20T02:05:43;61234.09;;;-1.38;100.00
43818;BME280;29868;47.360;18.984;2023-12-20T02:08:09;61218.03;;;-1.49;100.00
43818;BME280;29868;47.360;18.984;2023-12-20T02:10:35;61228.03;;;-1.44;100.00
43818;BME280;29868;47.360;18.984;2023-12-20T02:13:00;61228.50;;;-1.39;100.00
43818;BME280;29868;47.360;18.984;2023-12-20T02:15:25;61218.03;;;-1.49;100.00
43818;BME280;29868;47.360;18.984;2023-12-20T02:17:51;61225.28;;;-1.47;100.00
43818;BME280;29868;47.360;18.984;2023-12-20T02:20:17;61210.88;;;-1.55;100.00
43818;BME280;29868;47.360;18.984;2023-12-20T02:22:42;61223.41;;;-1.51;100.00
43818;BME280;29868;47.360;18.984;2023-12-20T02:25:08;61219.75;;;-1.52;100.00
43818;BME280;29868;47.360;18.984;2023-12-20T02:27:34;61210.09;;;-1.58;100.00
43818;BME280;29868;47.360;18.984;2023-12-20T02:29:59;61215.13;;;-1.58;100.00
43818;BME280;29868;47.360;18.984;2023-12-20T02:32:25;61211.50;;;-1.59;100.00
43818;BME280;29868;47.360;18.984;2023-12-20T02:34:54;61216.38;;;-1.50;100.00
43818;BME280;29868;47.360;18.984;2023-12-20T02:37:20;61218.13;;;-1.53;100.00
43818;BME280;29868;47.360;18.984;2023-12-20T02:39:45;61218.44;;;-1.55;100.00
43818;BME280;29868;47.360;18.984;2023-12-20T02:42:11;61214.25;;;-1.57;100.00
43818;BME280;29868;47.360;18.984;2023-12-20T02:44:36;61217.00;;;-1.54;100.00
43818;BME280;29868;47.360;18.984;2023-12-20T02:47:02;61230.69;;;-1.37;100.00
43818;BME280;29868;47.360;18.984;2023-12-20T02:49:28;61230.69;;;-1.37;100.00
43818;BME280;29868;47.360;18.984;2023-12-20T02:51:53;61221.97;;;-1.50;100.00
43818;BME280;29868;47.360;18.984;2023-12-20T02:54:18;61233.53;;;-1.39;100.00
43818;BME280;29868;47.360;18.984;2023-12-20T02:56:44;61231.88;;;-1.40;100.00
43818;BME280;29868;47.360;18.984;2023-12-20T02:59:09;61226.94;;;-1.45;100.00
43818;BME280;29868;47.360;18.984;2023-12-20T03:01:35;61228.03;;;-1.44;100.00
43818;BME280;29868;47.360;18.984;2023-12-20T03:04:01;61207.66;;;-1.63;100.00
43818;BME280;29868;47.360;18.984;2023-12-20T03:06:26;61204.25;;;-1.61;100.00
43818;BME280;29868;47.360;18.984;2023-12-20T03:08:52;61225.28;;;-1.47;100.00
43818;BME280;29868;47.360;18.984;2023-12-20T03:11:17;61225.81;;;-1.46;100.00
43818;BME280;29868;47.360;18.984;2023-12-20T03:13:42;61220.78;;;-1.46;100.00
43818;BME280;29868;47.360;18.984;2023-12-20T03:16:12;61226.63;;;-1.43;100.00
43818;BME280;29868;47.360;18.984;2023-12-20T03:18:38;61217.56;;;-1.54;100.00
43818;BME280;29868;47.360;18.984;2023-12-20T03:21:04;61216.47;;;-1.55;100.00
43818;BME280;29868;47.360;18.984;2023-12-20T03:23:30;61228.03;;;-1.44;100.00
43818;BME280;29868;47.360;18.984;2023-12-20T03:25:58;61227.16;;;-1.42;100.00
43818;BME280;29868;47.360;18.984;2023-12-20T03:28:23;61227.16;;;-1.42;100.00
43818;BME280;29868;47.360;18.984;2023-12-20T03:30:49;61225.91;;;-1.51;100.00
43818;BME280;29868;47.360;18.984;2023-12-20T03:33:14;61214.81;;;-1.56;100.00
43818;BME280;29868;47.360;18.984;2023-12-20T03:35:40;61222.97;;;-1.44;100.00
43818;BME280;29868;47.360;18.984;2023-12-20T03:38:05;61204.25;;;-1.61;100.00
43818;BME280;29868;47.360;18.984;2023-12-20T03:40:31;61203.16;;;-1.62;100.00
43818;BME280;29868;47.360;18.984;2023-12-20T03:42:56;61211.72;;;-1.57;100.00
43818;BME280;29868;47.360;18.984;2023-12-20T03:45:21;61215.13;;;-1.58;100.00
43818;BME280;29868;47.360;18.984;2023-12-20T03:47:47;61210.09;;;-1.58;100.00
43818;BME280;29868;47.360;18.984;2023-12-20T03:50:13;61212.06;;;-1.59;100.00
43818;BME280;29868;47.360;18.984;2023-12-20T03:52:38;61198.50;;;-1.69;100.00
43818;BME280;29868;47.360;18.984;2023-12-20T03:55:04;61219.44;;;-1.50;100.00
43818;BME280;29868;47.360;18.984;2023-12-20T03:57:29;61212.06;;;-1.59;100.00
43818;BME280;29868;47.360;18.984;2023-12-20T03:59:55;61203.47;;;-1.64;100.00
43818;BME280;29868;47.360;18.984;2023-12-20T04:02:20;61215.59;;;-1.53;100.00
43818;BME280;29868;47.360;18.984;2023-12-20T04:04:46;61200.94;;;-1.64;100.00
43818;BME280;29868;47.360;18.984;2023-12-20T04:07:11;61206.78;;;-1.61;100.00
43818;BME280;29868;47.360;18.984;2023-12-20T04:09:36;61211.50;;;-1.59;100.00
43818;BME280;29868;47.360;18.984;2023-12-20T04:12:02;61200.41;;;-1.65;100.00
43818;BME280;29868;47.360;18.984;2023-12-20T04:14:28;61203.47;;;-1.64;100.00
43818;BME280;29868;47.360;18.984;2023-12-20T04:16:54;61203.16;;;-1.62;100.00
43818;BME280;29868;47.360;18.984;2023-12-20T04:19:19;61206.78;;;-1.61;100.00
43818;BME280;29868;47.360;18.984;2023-12-20T04:21:44;61215.59;;;-1.53;100.00
43818;BME280;29868;47.360;18.984;2023-12-20T04:24:10;61205.91;;;-1.60;100.00
43818;BME280;29868;47.360;18.984;2023-12-20T04:26:35;61221.09;;;-1.48;100.00
43818;BME280;29868;47.360;18.984;2023-12-20T04:29:01;61213.41;;;-1.55;100.00
43818;BME280;29868;47.360;18.984;2023-12-20T04:31:26;61216.38;;;-1.50;100.00
43818;BME280;29868;47.360;18.984;2023-12-20T04:33:52;61208.13;;;-1.58;100.00
43818;BME280;29868;47.360;18.984;2023-12-20T04:36:17;61208.41;;;-1.60;100.00
43818;BME280;29868;47.360;18.984;2023-12-20T04:38:42;61204.91;;;-1.65;100.00
43818;BME280;29868;47.360;18.984;2023-12-20T04:41:08;61217.81;;;-1.51;100.00
43818;BME280;29868;47.360;18.984;2023-12-20T04:43:33;61199.84;;;-1.65;100.00
43818;BME280;29868;47.360;18.984;2023-12-20T04:45:59;61218.13;;;-1.53;100.00
43818;BME280;29868;47.360;18.984;2023-12-20T04:48:24;61220.00;;;-1.49;100.00
43818;BME280;29868;47.360;18.984;2023-12-20T04:50:49;61225.50;;;-1.44;100.00
43818;BME280;29868;47.360;18.984;2023-12-20T04:53:15;61222.97;;;-1.44;100.00
43818;BME280;29868;47.360;18.984;2023-12-20T04:55:40;61224.94;;;-1.44;100.00
43818;BME280;29868;47.360;18.984;2023-12-20T04:58:06;61225.28;;;-1.47;100.00
43818;BME280;29868;47.360;18.984;2023-12-20T05:00:31;61233.22;;;-1.37;100.00
43818;BME280;29868;47.360;18.984;2023-12-20T05:02:56;61228.81;;;-1.41;100.00
43818;BME280;29868;47.360;18.984;2023-12-20T05:05:22;61213.06;;;-1.53;100.00
43818;BME280;29868;47.360;18.984;2023-12-20T05:07:47;61235.19;;;-1.37;100.00
43818;BME280;29868;47.360;18.984;2023-12-20T05:10:13;61238.50;;;-1.34;100.00
43818;BME280;29868;47.360;18.984;2023-12-20T05:12:38;61229.94;;;-1.40;100.00
43818;BME280;29868;47.360;18.984;2023-12-20T05:15:06;61239.03;;;-1.34;100.00
43818;BME280;29868;47.360;18.984;2023-12-20T05:17:31;61233.53;;;-1.39;100.00
43818;BME280;29868;47.360;18.984;2023-12-20T05:19:57;61229.94;;;-1.40;100.00
43818;BME280;29868;47.360;18.984;2023-12-20T05:22:22;61234.34;;;-1.36;100.00
43818;BME280;29868;47.360;18.984;2023-12-20T05:24:47;61235.75;;;-1.37;100.00
43818;BME280;29868;47.360;18.984;2023-12-20T05:27:13;61242.91;;;-1.30;100.00
43818;BME280;29868;47.360;18.984;2023-12-20T05:29:38;61212.81;;;-1.56;100.00
43818;BME280;29868;47.360;18.984;2023-12-20T05:32:04;61217.00;;;-1.54;100.00
43818;BME280;29868;47.360;18.984;2023-12-20T05:34:30;61226.28;;;-1.41;100.00
43818;BME280;29868;47.360;18.984;2023-12-20T05:36:56;61222.53;;;-1.49;100.00
43818;BME280;29868;47.360;18.984;2023-12-20T05:39:21;61220.22;;;-1.47;100.00
43818;BME280;29868;47.360;18.984;2023-12-20T05:41:47;61210.41;;;-1.60;100.00
43818;BME280;29868;47.360;18.984;2023-12-20T05:44:13;61203.22;;;-1.67;100.00
43818;BME280;29868;47.360;18.984;2023-12-20T05:46:38;61194.66;;;-1.73;100.00
43818;BME280;29868;47.360;18.984;2023-12-20T05:49:04;61208.50;;;-1.64;100.00
43818;BME280;29868;47.360;18.984;2023-12-20T05:51:30;61210.09;;;-1.58;100.00
43818;BME280;29868;47.360;18.984;2023-12-20T05:53:55;61212.38;;;-1.61;100.00
43818;BME280;29868;47.360;18.984;2023-12-20T05:56:21;61216.47;;;-1.55;100.00
43818;BME280;29868;47.360;18.984;2023-12-20T05:58:46;61217.00;;;-1.54;100.00
43818;BME280;29868;47.360;18.984;2023-12-20T06:01:11;61219.44;;;-1.50;100.00
43818;BME280;29868;47.360;18.984;2023-12-20T06:03:37;61218.34;;;-1.51;100.00
43818;BME280;29868;47.360;18.984;2023-12-20T06:06:06;61224.72;;;-1.47;100.00
43818;BME280;29868;47.360;18.984;2023-12-20T06:08:32;61222.28;;;-1.52;100.00
43818;BME280;29868;47.360;18.984;2023-12-20T06:10:58;61226.84;;;-1.40;100.00
43818;BME280;29868;47.360;18.984;2023-12-20T06:13:23;61224.09;;;-1.43;100.00
43818;BME280;29868;47.360;18.984;2023-12-20T06:15:48;61223.31;;;-1.46;100.00
43818;BME280;29868;47.360;18.984;2023-12-20T06:18:14;61204.56;;;-1.63;100.00
43818;BME280;29868;47.360;18.984;2023-12-20T06:20:39;61224.94;;;-1.44;100.00
43818;BME280;29868;47.360;18.984;2023-12-20T06:23:04;61218.13;;;-1.53;100.00
43818;BME280;29868;47.360;18.984;2023-12-20T06:25:30;61219.22;;;-1.52;100.00
43818;BME280;29868;47.360;18.984;2023-12-20T06:27:55;61200.72;;;-1.67;100.00
43818;BME280;29868;47.360;18.984;2023-12-20T06:30:21;61214.81;;;-1.56;100.00
43818;BME280;29868;47.360;18.984;2023-12-20T06:32:46;61216.94;;;-1.50;100.00
43818;BME280;29868;47.360;18.984;2023-12-20T06:35:12;61218.91;;;-1.50;100.00
43818;BME280;29868;47.360;18.984;2023-12-20T06:37:38;61222.44;;;-1.44;100.00
43818;BME280;29868;47.360;18.984;2023-12-20T06:40:08;61231.03;;;-1.39;100.00
43818;BME280;29868;47.360;18.984;2023-12-20T06:42:33;61220.00;;;-1.49;100.00
43818;BME280;29868;47.360;18.984;2023-12-20T06:44:59;61231.56;;;-1.38;100.00
43818;BME280;29868;47.360;18.984;2023-12-20T06:47:24;61230.25;;;-1.42;100.00
43818;BME280;29868;47.360;18.984;2023-12-20T06:49:50;61228.03;;;-1.44;100.00
43818;BME280;29868;47.360;18.984;2023-12-20T06:52:15;61231.34;;;-1.41;100.00
43818;BME280;29868;47.360;18.984;2023-12-20T06:54:40;61210.09;;;-1.58;100.00
43818;BME280;29868;47.360;18.984;2023-12-20T06:57:06;61226.38;;;-1.45;100.00
43818;BME280;29868;47.360;18.984;2023-12-20T06:59:32;61217.47;;;-1.49;100.00
43818;BME280;29868;47.360;18.984;2023-12-20T07:01:57;61231.03;;;-1.39;100.00
43818;BME280;29868;47.360;18.984;2023-12-20T07:04:23;61225.28;;;-1.47;100.00
43818;BME280;29868;47.360;18.984;2023-12-20T07:06:48;61226.06;;;-1.43;100.00
43818;BME280;29868;47.360;18.984;2023-12-20T07:09:17;61239.59;;;-1.33;100.00
43818;BME280;29868;47.360;18.984;2023-12-20T07:11:42;61245.66;;;-1.28;100.00
43818;BME280;29868;47.360;18.984;2023-12-20T07:14:08;61251.19;;;-1.23;100.00
43818;BME280;29868;47.360;18.984;2023-12-20T07:16:33;61250.88;;;-1.20;100.00
43818;BME280;29868;47.360;18.984;2023-12-20T07:19:00;61241.16;;;-1.27;100.00
43818;BME280;29868;47.360;18.984;2023-12-20T07:21:25;61258.00;;;-1.14;100.00
43818;BME280;29868;47.360;18.984;2023-12-20T07:23:50;61267.16;;;-1.08;100.00
43818;BME280;29868;47.360;18.984;2023-12-20T07:26:17;61264.09;;;-1.08;100.00
43818;BME280;29868;47.360;18.984;2023-12-20T07:28:43;61275.44;;;-1.00;100.00
43818;BME280;29868;47.360;18.984;2023-12-20T07:31:08;61283.38;;;-0.90;100.00
43818;BME280;29868;47.360;18.984;2023-12-20T07:33:34;61278.41;;;-0.95;100.00
43818;BME280;29868;47.360;18.984;2023-12-20T07:35:59;61282.06;;;-0.94;100.00
43818;BME280;29868;47.360;18.984;2023-12-20T07:38:26;61286.13;;;-0.88;100.00
43818;BME280;29868;47.360;18.984;2023-12-20T07:40:51;61263.44;;;-1.04;100.00
43818;BME280;29868;47.360;18.984;2023-12-20T07:43:16;61280.38;;;-0.95;100.00
43818;BME280;29868;47.360;18.984;2023-12-20T07:45:42;61269.94;;;-1.05;100.00
43818;BME280;29868;47.360;18.984;2023-12-20T07:48:07;61256.91;;;-1.15;100.00
43818;BME280;29868;47.360;18.984;2023-12-20T07:50:33;61255.59;;;-1.18;100.00
43818;BME280;29868;47.360;18.984;2023-12-20T07:52:59;61246.13;;;-1.23;100.00
43818;BME280;29868;47.360;18.984;2023-12-20T07:55:26;61257.16;;;-1.12;100.00
43818;BME280;29868;47.360;18.984;2023-12-20T07:57:51;61277.56;;;-0.93;100.00
43818;BME280;29868;47.360;18.984;2023-12-20T08:00:17;61280.94;;;-0.95;100.00
43818;BME280;29868;47.360;18.984;2023-12-20T08:02:42;61274.34;;;-1.01;100.00
43818;BME280;29868;47.360;18.984;2023-12-20T08:05:08;61272.34;;;-1.01;100.00
43818;BME280;29868;47.360;18.984;2023-12-20T08:07:34;61294.50;;;-0.85;100.00
43818;BME280;29868;47.360;18.984;2023-12-20T08:09:59;61297.47;;;-0.80;100.00
43818;BME280;29868;47.360;18.984;2023-12-20T08:12:25;61294.41;;;-0.80;100.00
43818;BME280;29868;47.360;18.984;2023-12-20T08:14:53;61307.88;;;-0.65;100.00
43818;BME280;29868;47.360;18.984;2023-12-20T08:17:19;61321.66;;;-0.53;100.00
43818;BME280;29868;47.360;18.984;2023-12-20T08:19:44;61337.97;;;-0.40;100.00
43818;BME280;29868;47.360;18.984;2023-12-20T08:22:10;61346.25;;;-0.32;100.00
43818;BME280;29868;47.360;18.984;2023-12-20T08:24:35;61352.66;;;-0.29;100.00
43818;BME280;29868;47.360;18.984;2023-12-20T08:27:00;61357.84;;;-0.21;100.00
43818;BME280;29868;47.360;18.984;2023-12-20T08:29:26;61365.09;;;-0.19;100.00
43818;BME280;29868;47.360;18.984;2023-12-20T08:31:52;61365.03;;;-0.15;100.00
43818;BME280;29868;47.360;18.984;2023-12-20T08:34:18;61362.34;;;-0.22;100.00
43818;BME280;29868;47.360;18.984;2023-12-20T08:36:44;61356.41;;;-0.20;100.00
43818;BME280;29868;47.360;18.984;2023-12-20T08:39:09;61329.41;;;-0.45;100.00
43818;BME280;29868;47.360;18.984;2023-12-20T08:41:35;61347.69;;;-0.33;100.00
43818;BME280;29868;47.360;18.984;2023-12-20T08:44:01;61363.69;;;-0.18;100.00
43818;BME280;29868;47.360;18.984;2023-12-20T08:46:26;61354.84;;;-0.27;100.00
43818;BME280;29868;47.360;18.984;2023-12-20T08:48:52;61345.47;;;-0.35;100.00
43818;BME280;29868;47.360;18.984;2023-12-20T08:51:17;61353.44;;;-0.26;100.00
43818;BME280;29868;47.360;18.984;2023-12-20T08:53:43;61351.31;;;-0.32;100.00
43818;BME280;29868;47.360;18.984;2023-12-20T08:56:10;61377.25;;;-0.08;100.00
43818;BME280;29868;47.360;18.984;2023-12-20T08:58:35;61378.50;;;0.00;100.00
43818;BME280;29868;47.360;18.984;2023-12-20T09:01:01;61389.53;;;0.10;100.00
43818;BME280;29868;47.360;18.984;2023-12-20T09:03:26;61402.31;;;0.17;100.00
43818;BME280;29868;47.360;18.984;2023-12-20T09:05:52;61402.06;;;0.15;100.00
43818;BME280;29868;47.360;18.984;2023-12-20T09:08:17;61422.75;;;0.36;100.00
43818;BME280;29868;47.360;18.984;2023-12-20T09:10:43;61426.28;;;0.42;100.00
43818;BME280;29868;47.360;18.984;2023-12-20T09:13:09;61411.94;;;0.29;100.00
43818;BME280;29868;47.360;18.984;2023-12-20T09:15:35;61395.47;;;0.09;100.00
43818;BME280;29868;47.360;18.984;2023-12-20T09:18:01;61418.88;;;0.33;100.00
43818;BME280;29868;47.360;18.984;2023-12-20T09:20:26;61407.28;;;0.22;100.00
43818;BME280;29868;47.360;18.984;2023-12-20T09:22:52;61424.38;;;0.38;100.00
43818;BME280;29868;47.360;18.984;2023-12-20T09:25:18;61415.56;;;0.30;100.00
43818;BME280;29868;47.360;18.984;2023-12-20T09:27:43;61418.88;;;0.33;100.00
43818;BME280;29868;47.360;18.984;2023-12-20T09:30:09;61447.59;;;0.59;100.00
43818;BME280;29868;47.360;18.984;2023-12-20T09:32:34;61445.38;;;0.57;100.00
43818;BME280;29868;47.360;18.984;2023-12-20T09:35:00;61464.63;;;0.80;100.00
43818;BME280;29868;47.360;18.984;2023-12-20T09:37:27;61478.53;;;0.88;100.00
43818;BME280;29868;47.360;18.984;2023-12-20T09:39:53;61456.97;;;0.68;100.00
43818;BME280;29868;47.360;18.984;2023-12-20T09:42:31;61478.75;;;0.90;100.00
43818;BME280;29868;47.360;18.984;2023-12-20T09:45:03;61463.59;;;0.74;100.00
43818;BME280;29868;47.360;18.984;2023-12-20T09:47:33;61492.09;;;0.98;100.00
43818;BME280;29868;47.360;18.984;2023-12-20T09:49:59;61517.19;;;1.24;100.00
43818;BME280;29868;47.360;18.984;2023-12-20T09:52:24;61488.69;;;1.00;100.00
43818;BME280;29868;47.360;18.984;2023-12-20T09:54:52;61490.91;;;1.02;100.00
43818;BME280;29868;47.360;18.984;2023-12-20T09:57:18;61500.63;;;1.08;100.00
43818;BME280;29868;47.360;18.984;2023-12-20T09:59:43;61514.44;;;1.21;100.00
43818;BME280;29868;47.360;18.984;2023-12-20T10:02:13;61533.22;;;1.38;100.00
43818;BME280;29868;47.360;18.984;2023-12-20T10:04:44;61554.25;;;1.58;100.00
43818;BME280;29868;47.360;18.984;2023-12-20T10:07:11;61528.81;;;1.34;100.00
43818;BME280;29868;47.360;18.984;2023-12-20T10:09:36;61475.75;;;0.85;100.00
43818;BME280;29868;47.360;18.984;2023-12-20T10:12:03;61504.50;;;1.12;100.00
43818;BME280;29868;47.360;18.984;2023-12-20T10:14:30;61538.44;;;1.45;100.00
43818;BME280;29868;47.360;18.984;2023-12-20T10:17:05;61522.16;;;1.28;100.00
43818;BME280;29868;47.360;18.984;2023-12-20T10:19:34;61541.22;;;1.48;100.00
43818;BME280;29868;47.360;18.984;2023-12-20T10:21:59;61545.41;;;1.50;100.00
43818;BME280;29868;47.360;18.984;2023-12-20T10:24:25;61551.69;;;1.58;100.00
43818;BME280;29868;47.360;18.984;2023-12-20T10:27:07;61549.81;;;1.54;100.00
43818;BME280;29868;47.360;18.984;2023-12-20T10:29:36;61553.69;;;1.57;100.00
43818;BME280;29868;47.360;18.984;2023-12-20T10:32:24;61581.34;;;1.83;100.00
43818;BME280;29868;47.360;18.984;2023-12-20T10:34:54;61588.75;;;1.92;100.00
43818;BME280;29868;47.360;18.984;2023-12-20T10:37:20;61579.66;;;1.81;100.00
43818;BME280;29868;47.360;18.984;2023-12-20T10:39:51;61568.63;;;1.71;100.00
43818;BME280;29868;47.360;18.984;2023-12-20T10:42:20;61562.75;;;1.68;100.00
43818;BME280;29868;47.360;18.984;2023-12-20T10:44:46;61568.63;;;1.71;100.00
43818;BME280;29868;47.360;18.984;2023-12-20T10:47:13;61571.06;;;1.76;100.00
43818;BME280;29868;47.360;18.984;2023-12-20T10:49:39;61596.84;;;1.97;100.00
43818;BME280;29868;47.360;18.984;2023-12-20T10:52:05;61588.19;;;1.91;100.00
43818;BME280;29868;47.360;18.984;2023-12-20T10:54:31;61598.72;;;2.01;100.00
43818;BME280;29868;47.360;18.984;2023-12-20T10:56:57;61602.59;;;2.05;100.00
43818;BME280;29868;47.360;18.984;2023-12-20T10:59:24;61617.84;;;2.16;100.00
43818;BME280;29868;47.360;18.984;2023-12-20T11:01:50;61633.31;;;2.31;100.00
43818;BME280;29868;47.360;18.984;2023-12-20T11:04:24;61642.75;;;2.39;100.00
43818;BME280;29868;47.360;18.984;2023-12-20T11:06:54;61659.91;;;2.55;100.00
43818;BME280;29868;47.360;18.984;2023-12-20T11:09:26;61670.31;;;2.70;100.00
43818;BME280;29868;47.360;18.984;2023-12-20T11:12:13;61696.44;;;2.89;100.00
43818;BME280;29868;47.360;18.984;2023-12-20T11:14:47;61699.75;;;2.92;100.00
43818;BME280;29868;47.360;18.984;2023-12-20T11:17:13;61736.09;;;3.23;100.00
43818;BME280;29868;47.360;18.984;2023-12-20T11:22:22;61753.50;;;3.41;100.00
43818;BME280;29868;47.360;18.984;2023-12-20T11:24:48;61764.00;;;3.51;100.00
43818;BME280;29868;47.360;18.984;2023-12-20T11:27:14;61766.00;;;3.51;100.00
43818;BME280;29868;47.360;18.984;2023-12-20T11:29:40;61779.84;;;3.63;100.00
43818;BME280;29868;47.360;18.984;2023-12-20T11:32:36;61787.84;;;3.73;100.00
43818;BME280;29868;47.360;18.984;2023-12-20T11:35:17;61803.34;;;3.87;100.00
43818;BME280;29868;47.360;18.984;2023-12-20T11:37:45;61804.47;;;3.88;100.00
43818;BME280;29868;47.360;18.984;2023-12-20T11:40:16;61811.34;;;3.97;100.00
43818;BME280;29868;47.360;18.984;2023-12-20T11:42:44;61816.09;;;3.99;100.00
43818;BME280;29868;47.360;18.984;2023-12-20T11:45:15;61831.16;;;4.08;100.00
43818;BME280;29868;47.360;18.984;2023-12-20T11:47:46;61845.81;;;4.24;100.00
43818;BME280;29868;47.360;18.984;2023-12-20T11:50:11;61844.16;;;4.23;100.00
43818;BME280;29868;47.360;18.984;2023-12-20T11:52:37;61864.56;;;4.46;100.00
43818;BME280;29868;47.360;18.984;2023-12-20T11:55:03;61875.97;;;4.54;100.00
43818;BME280;29868;47.360;18.984;2023-12-20T11:57:30;61891.50;;;4.69;100.00
43818;BME280;29868;47.360;18.984;2023-12-20T11:59:55;61912.94;;;4.86;100.00
43818;BME280;29868;47.360;18.984;2023-12-20T12:02:21;61924.81;;;4.99;100.00
43818;BME280;29868;47.360;18.984;2023-12-20T12:04:48;61934.03;;;5.05;100.00
43818;BME280;29868;47.360;18.984;2023-12-20T12:07:14;61954.00;;;5.24;100.00
43818;BME280;29868;47.360;18.984;2023-12-20T12:09:39;61972.00;;;5.43;100.00
43818;BME280;29868;47.360;18.984;2023-12-20T12:12:05;61992.31;;;5.59;100.00
43818;BME280;29868;47.360;18.984;2023-12-20T12:14:31;62001.09;;;5.72;100.00
43818;BME280;29868;47.360;18.984;2023-12-20T12:16:57;62027.31;;;5.91;100.00
43818;BME280;29868;47.360;18.984;2023-12-20T12:19:23;62058.66;;;6.22;100.00
43818;BME280;29868;47.360;18.984;2023-12-20T12:22:07;62104.69;;;6.57;100.00
43818;BME280;29868;47.360;18.984;2023-12-20T12:24:36;62113.25;;;6.68;100.00
43818;BME280;29868;47.360;18.984;2023-12-20T12:27:01;62121.69;;;6.82;100.00
43818;BME280;29868;47.360;18.984;2023-12-20T12:29:27;62135.38;;;6.93;100.00
43818;BME280;29868;47.360;18.984;2023-12-20T12:31:52;62139.81;;;6.97;100.00
43818;BME280;29868;47.360;18.984;2023-12-20T12:34:18;62156.84;;;7.10;100.00
43818;BME280;29868;47.360;18.984;2023-12-20T12:36:44;62154.84;;;7.11;100.00
43818;BME280;29868;47.360;18.984;2023-12-20T12:39:12;62162.06;;;7.17;100.00
43818;BME280;29868;47.360;18.984;2023-12-20T12:41:40;62157.06;;;7.13;100.00
43818;BME280;29868;47.360;18.984;2023-12-20T12:44:05;62150.38;;;7.06;100.00
43818;BME280;29868;47.360;18.984;2023-12-20T12:46:31;62151.06;;;7.02;100.00
43818;BME280;29868;47.360;18.984;2023-12-20T12:48:56;62132.59;;;6.90;100.00
43818;BME280;29868;47.360;18.984;2023-12-20T12:51:21;62120.13;;;6.76;100.00
43818;BME280;29868;47.360;18.984;2023-12-20T12:53:47;62111.25;;;6.68;100.00
43818;BME280;29868;47.360;18.984;2023-12-20T12:56:12;62108.13;;;6.68;100.00
43818;BME280;29868;47.360;18.984;2023-12-20T12:58:38;62100.34;;;6.61;100.00
43818;BME280;29868;47.360;18.984;2023-12-20T13:01:04;62088.13;;;6.49;100.00
43818;BME280;29868;47.360;18.984;2023-12-20T13:03:29;62086.22;;;6.45;100.00
43818;BME280;29868;47.360;18.984;2023-12-20T13:05:55;62072.00;;;6.34;100.00
43818;BME280;29868;47.360;18.984;2023-12-20T13:08:20;62063.66;;;6.27;100.00
43818;BME280;29868;47.360;18.984;2023-12-20T13:10:46;62061.44;;;6.25;100.00